createdAt,value
2023-03-02T00:04:20.797Z,35.20
2023-03-02T00:09:22.394Z,31.90
2023-03-02T00:14:23.899Z,41.17
2023-03-02T00:19:26.457Z,39.40
2023-03-02T00:24:27.954Z,42.60
2023-03-02T00:29:29.370Z,40.22
2023-03-02T00:34:33.747Z,37.03
2023-03-02T00:39:35.202Z,40.17
2023-03-02T00:44:36.642Z,39.90
2023-03-02T00:49:38.396Z,44.83
2023-03-02T00:54:39.841Z,39.15
2023-03-02T00:59:41.386Z,47.08
2023-03-02T01:04:44.469Z,44.83
2023-03-02T01:09:45.980Z,43.45
2023-03-02T01:14:49.008Z,44.97
2023-03-02T01:19:50.752Z,45.75
2023-03-02T01:24:53.353Z,42.38
2023-03-02T01:29:55.081Z,42.70
2023-03-02T01:34:56.508Z,46.83
2023-03-02T01:39:57.906Z,39.55
2023-03-02T01:44:59.483Z,43.40
2023-03-02T01:50:21.181Z,48.60
2023-03-02T01:55:25.891Z,42.90
2023-03-02T02:00:31.866Z,40.17
2023-03-02T02:05:33.313Z,44.05
2023-03-02T02:10:35.850Z,42.60
2023-03-02T02:15:38.974Z,48.50
2023-03-02T02:20:45.217Z,43.30
2023-03-02T02:25:49.697Z,42.92
2023-03-02T02:31:04.459Z,49.05
2023-03-02T02:36:10.106Z,43.45
2023-03-02T02:41:19.279Z,45.83
2023-03-02T02:46:20.904Z,47.17
2023-03-02T02:51:27.112Z,43.83
2023-03-02T02:56:35.080Z,45.88
2023-03-02T03:01:36.801Z,42.13
2023-03-02T03:06:48.718Z,43.53
2023-03-02T03:12:17.779Z,50.08
2023-03-02T03:17:19.263Z,48.60
2023-03-02T03:22:20.726Z,45.88
2023-03-02T03:27:22.150Z,45.80
2023-03-02T03:32:23.678Z,51.28
2023-03-02T03:37:25.251Z,46.85
2023-03-02T03:42:27.198Z,45.00
2023-03-02T03:47:28.649Z,45.28
2023-03-02T03:52:33.257Z,47.70
2023-03-02T03:57:34.712Z,45.58
2023-03-02T04:02:37.742Z,48.58
2023-03-02T04:07:40.109Z,45.08
2023-03-02T04:12:42.535Z,51.88
2023-03-02T04:17:45.020Z,48.33
2023-03-02T04:22:48.812Z,50.45
2023-03-02T04:27:52.956Z,47.92
2023-03-02T04:32:54.798Z,45.13
2023-03-02T04:37:56.251Z,54.28
2023-03-02T04:42:57.670Z,52.50
2023-03-02T04:47:59.364Z,46.30
2023-03-02T04:53:00.816Z,50.03
2023-03-02T04:58:02.278Z,49.83
2023-03-02T05:03:04.169Z,48.28
2023-03-02T05:08:05.686Z,48.63
2023-03-02T05:13:07.333Z,48.92
2023-03-02T05:18:10.849Z,49.50
2023-03-02T05:23:25.158Z,58.17
2023-03-02T05:28:27.781Z,54.08
2023-03-02T05:33:30.091Z,49.17
2023-03-02T05:38:31.801Z,55.80
2023-03-02T05:43:33.323Z,54.83
2023-03-02T05:48:34.952Z,52.72
2023-03-02T05:53:36.486Z,55.10
2023-03-02T05:58:37.938Z,58.38
2023-03-02T06:03:39.349Z,59.42
2023-03-02T06:08:41.980Z,51.13
2023-03-02T06:13:43.526Z,43.97
2023-03-02T06:18:44.944Z,53.88
2023-03-02T06:23:46.365Z,46.40
2023-03-02T06:28:52.461Z,51.13
2023-03-02T06:33:54.550Z,42.75
2023-03-02T06:38:56.034Z,51.60
2023-03-02T06:43:57.441Z,53.00
2023-03-02T06:48:58.848Z,40.50
2023-03-02T06:54:00.863Z,54.05
2023-03-02T06:59:02.314Z,43.63
2023-03-02T07:04:03.919Z,41.58
2023-03-02T07:09:05.384Z,41.80
2023-03-02T07:14:06.993Z,43.03
2023-03-02T07:19:13.712Z,41.45
2023-03-02T07:24:15.140Z,42.85
2023-03-02T07:29:16.646Z,40.85
2023-03-02T07:34:18.568Z,41.22
2023-03-02T07:39:20.374Z,36.40
2023-03-02T07:44:21.795Z,41.03
2023-03-02T07:49:23.233Z,41.58
2023-03-02T07:54:26.495Z,44.25
2023-03-02T07:59:28.856Z,39.50
2023-03-02T08:04:30.285Z,39.05
2023-03-02T08:09:31.781Z,47.13
2023-03-02T08:14:33.204Z,41.00
2023-03-02T08:19:34.791Z,41.33
2023-03-02T08:24:37.204Z,44.45
2023-03-02T08:29:38.649Z,41.97
2023-03-02T08:34:40.073Z,42.00
2023-03-02T08:39:41.481Z,45.13
2023-03-02T08:44:42.896Z,36.35
2023-03-02T08:49:45.561Z,37.40
2023-03-02T08:54:47.841Z,38.97
2023-03-02T08:59:49.363Z,37.70
2023-03-02T09:04:50.861Z,36.53
2023-03-02T09:09:52.309Z,34.63
2023-03-02T09:14:53.708Z,41.67
2023-03-02T09:19:55.135Z,32.97
2023-03-02T09:24:56.547Z,39.45
2023-03-02T09:29:58.057Z,36.55
2023-03-02T09:34:59.490Z,36.58
2023-03-02T09:40:00.959Z,34.90
2023-03-02T09:45:30.214Z,36.28
2023-03-02T09:50:35.960Z,31.95
2023-03-02T09:55:38.184Z,34.25
2023-03-02T10:00:43.899Z,34.13
2023-03-02T10:05:50.995Z,36.05
2023-03-02T10:11:18.079Z,33.17
2023-03-02T10:16:39.469Z,32.08
2023-03-02T10:21:44.820Z,31.17
2023-03-02T10:26:50.364Z,31.17
2023-03-02T10:32:06.499Z,30.48
2023-03-02T10:37:16.420Z,31.17
2023-03-02T10:42:32.062Z,28.60
2023-03-02T10:47:33.598Z,27.60
2023-03-02T10:52:35.016Z,28.17
2023-03-02T10:57:42.097Z,34.75
2023-03-02T11:02:57.379Z,30.10
2023-03-02T11:08:08.816Z,28.30
2023-03-02T11:13:28.195Z,29.73
2023-03-02T11:18:38.105Z,30.23
2023-03-02T11:23:45.493Z,39.40
2023-03-02T11:29:22.724Z,32.00
2023-03-02T11:34:43.254Z,27.55
2023-03-02T11:39:55.212Z,31.02
2023-03-02T11:45:02.042Z,29.52
2023-03-02T11:50:07.344Z,31.83
2023-03-02T11:55:11.959Z,31.05
2023-03-02T12:00:33.650Z,32.63
2023-03-02T12:05:39.031Z,35.30
2023-03-02T12:10:44.125Z,35.13
2023-03-02T12:15:50.949Z,29.63
2023-03-02T12:21:02.012Z,28.02
2023-03-02T12:26:29.534Z,34.30
2023-03-02T12:31:47.457Z,29.00
2023-03-02T12:36:50.634Z,32.90
2023-03-02T12:42:22.283Z,29.15
2023-03-02T12:47:29.763Z,25.02
2023-03-02T12:52:35.617Z,34.03
2023-03-02T12:57:46.632Z,30.15
2023-03-02T13:02:50.872Z,29.50
2023-03-02T13:08:03.298Z,28.15
2023-03-02T13:13:16.496Z,25.50
2023-03-02T13:18:20.030Z,30.35
2023-03-02T13:23:22.203Z,28.45
2023-03-02T13:28:31.529Z,31.50
2023-03-02T13:33:35.418Z,30.63
2023-03-02T13:38:38.424Z,30.23
2023-03-02T13:43:40.208Z,32.33
2023-03-02T13:48:41.825Z,32.42
2023-03-02T13:53:50.917Z,33.00
2023-03-02T13:58:52.453Z,27.65
2023-03-02T14:03:55.435Z,31.85
2023-03-02T14:08:58.632Z,27.70
2023-03-02T14:14:02.110Z,31.40
2023-03-02T14:19:04.058Z,33.70
2023-03-02T14:24:06.269Z,29.10
2023-03-02T14:29:21.634Z,30.15
2023-03-02T14:34:23.480Z,27.95
2023-03-02T14:39:35.308Z,31.40
2023-03-02T14:44:36.944Z,32.47
2023-03-02T14:49:39.121Z,28.55
2023-03-02T14:54:44.805Z,28.83
2023-03-02T14:59:47.017Z,27.23
2023-03-02T15:04:52.699Z,31.75
2023-03-02T15:09:56.155Z,27.38
2023-03-02T15:14:57.630Z,28.40
2023-03-02T15:19:59.542Z,28.02
2023-03-02T15:25:00.980Z,28.10
2023-03-02T15:30:02.494Z,25.55
2023-03-02T15:35:04.703Z,27.55
2023-03-02T15:40:06.932Z,31.10
2023-03-02T15:45:08.623Z,24.50
2023-03-02T15:50:11.073Z,28.52
2023-03-02T15:55:15.627Z,27.98
2023-03-02T16:00:18.019Z,28.15
2023-03-02T16:05:19.566Z,29.58
2023-03-02T16:10:21.246Z,26.65
2023-03-02T16:15:22.881Z,24.67
2023-03-02T16:20:24.588Z,26.92
2023-03-02T16:25:26.026Z,31.50
2023-03-02T16:30:27.756Z,29.23
2023-03-02T16:35:34.268Z,37.42
2023-03-02T16:40:37.246Z,36.72
2023-03-02T16:45:38.750Z,37.25
2023-03-02T16:50:43.394Z,37.85
2023-03-02T16:55:44.797Z,37.65
2023-03-02T17:00:46.445Z,44.25
2023-03-02T17:05:48.638Z,42.97
2023-03-02T17:10:50.084Z,35.17
2023-03-02T17:15:51.592Z,44.05
2023-03-02T17:20:55.168Z,42.80
2023-03-02T17:25:57.410Z,47.38
2023-03-02T17:31:00.514Z,41.28
2023-03-02T17:36:07.644Z,46.58
2023-03-02T17:41:11.578Z,42.83
2023-03-02T17:46:20.486Z,48.72
2023-03-02T17:51:23.316Z,43.50
2023-03-02T17:56:26.737Z,43.95
2023-03-02T18:01:29.841Z,46.67
2023-03-02T18:06:31.846Z,45.10
2023-03-02T18:11:33.599Z,49.17
2023-03-02T18:16:35.576Z,49.15
2023-03-02T18:21:38.470Z,53.90
2023-03-02T18:26:40.002Z,46.03
2023-03-02T18:31:41.639Z,46.53
2023-03-02T18:36:43.114Z,47.90
2023-03-02T18:41:44.634Z,44.38
2023-03-02T18:46:46.508Z,45.17
2023-03-02T18:51:48.536Z,51.08
2023-03-02T18:56:49.977Z,49.90
2023-03-02T19:01:51.469Z,42.13
2023-03-02T19:06:55.632Z,47.35
2023-03-02T19:11:57.062Z,51.22
2023-03-02T19:16:58.671Z,50.70
2023-03-02T19:22:01.102Z,53.72
2023-03-02T19:27:02.727Z,57.45
2023-03-02T19:32:04.736Z,45.78
2023-03-02T19:37:06.200Z,48.03
2023-03-02T19:42:07.787Z,46.10
2023-03-02T19:47:09.328Z,44.55
2023-03-02T19:52:10.764Z,44.45
2023-03-02T19:57:12.273Z,47.72
2023-03-02T20:02:15.056Z,47.33
2023-03-02T20:07:16.538Z,47.00
2023-03-02T20:12:18.127Z,49.10
2023-03-02T20:17:20.856Z,45.38
2023-03-02T20:22:25.841Z,43.63
2023-03-02T20:27:27.297Z,53.63
2023-03-02T20:32:30.039Z,48.22
2023-03-02T20:37:31.756Z,55.92
2023-03-02T20:42:34.074Z,50.22
2023-03-02T20:47:35.633Z,40.53
2023-03-02T20:52:37.740Z,43.33
2023-03-02T20:57:39.773Z,45.33
2023-03-02T21:02:41.467Z,51.30
2023-03-02T21:07:43.569Z,48.13
2023-03-02T21:12:45.692Z,49.95
2023-03-02T21:17:47.514Z,54.50
2023-03-02T21:22:49.051Z,48.05
2023-03-02T21:27:50.525Z,50.40
2023-03-02T21:32:51.959Z,48.10
2023-03-02T21:37:57.191Z,47.83
2023-03-02T21:43:00.369Z,49.53
2023-03-02T21:48:02.307Z,48.92
2023-03-02T21:53:04.294Z,47.70
2023-03-02T21:58:06.192Z,49.88
2023-03-02T22:03:07.848Z,53.50
2023-03-02T22:08:13.504Z,53.97
2023-03-02T22:13:23.930Z,48.80
2023-03-02T22:18:27.041Z,52.53
2023-03-02T22:23:28.566Z,52.97
2023-03-02T22:28:30.207Z,48.75
2023-03-02T22:33:33.925Z,45.55
2023-03-02T22:38:35.415Z,50.78
2023-03-02T22:43:36.867Z,50.70
2023-03-02T22:48:38.604Z,51.28
2023-03-02T22:53:46.368Z,46.42
2023-03-02T22:58:50.134Z,41.97
2023-03-02T23:04:12.949Z,44.58
2023-03-02T23:09:23.930Z,53.47
2023-03-02T23:14:28.580Z,80.03
2023-03-02T23:19:31.422Z,52.45
2023-03-02T23:24:32.857Z,49.35
2023-03-02T23:29:35.077Z,47.08
2023-03-02T23:34:36.518Z,43.03
2023-03-02T23:39:37.938Z,49.55
2023-03-02T23:44:39.426Z,41.78
2023-03-02T23:49:40.919Z,43.45
2023-03-02T23:54:43.340Z,45.90
2023-03-02T23:59:44.762Z,48.80
